createdAt,value
2023-05-10T00:00:23.608Z,1.17
2023-05-10T00:02:50.498Z,1.10
2023-05-10T00:05:17.313Z,1.17
2023-05-10T00:07:45.957Z,1.38
2023-05-10T00:10:13.231Z,0.93
2023-05-10T00:12:40.212Z,1.05
2023-05-10T00:15:07.625Z,1.30
2023-05-10T00:17:34.428Z,1.50
2023-05-10T00:20:01.529Z,1.48
2023-05-10T00:22:28.341Z,1.10
2023-05-10T00:24:55.124Z,1.20
2023-05-10T00:27:22.054Z,1.40
2023-05-10T00:29:48.740Z,1.30
2023-05-10T00:32:15.576Z,1.42
2023-05-10T00:34:42.397Z,1.23
2023-05-10T00:37:09.282Z,1.35
2023-05-10T00:39:35.985Z,0.93
2023-05-10T00:42:02.818Z,1.45
2023-05-10T00:44:29.584Z,1.42
2023-05-10T00:46:56.308Z,1.27
2023-05-10T00:49:23.130Z,1.42
2023-05-10T00:51:50.593Z,2.08
2023-05-10T00:54:17.565Z,1.13
2023-05-10T00:56:49.647Z,1.17
2023-05-10T00:59:18.120Z,1.50
2023-05-10T01:01:46.541Z,1.38
2023-05-10T01:04:14.558Z,0.90
2023-05-10T01:06:42.026Z,1.08
2023-05-10T01:09:09.110Z,1.75
2023-05-10T01:11:37.840Z,2.42
2023-05-10T01:14:04.825Z,1.65
2023-05-10T01:16:37.697Z,1.42
2023-05-10T01:19:07.540Z,1.88
2023-05-10T01:21:44.517Z,1.60
2023-05-10T01:24:33.444Z,1.75
2023-05-10T01:27:20.358Z,1.45
2023-05-10T01:35:46.588Z,1.70
2023-05-10T01:38:47.525Z,1.48
2023-05-10T01:41:17.621Z,0.73
2023-05-10T01:44:07.649Z,0.88
2023-05-10T01:46:39.491Z,2.20
2023-05-10T01:49:12.792Z,1.33
2023-05-10T01:51:55.713Z,1.73
2023-05-10T01:54:24.780Z,1.08
2023-05-10T01:57:00.509Z,1.92
2023-05-10T01:59:37.220Z,1.35
2023-05-10T02:02:06.629Z,1.48
2023-05-10T02:04:36.339Z,1.98
2023-05-10T02:07:03.387Z,2.70
2023-05-10T02:09:33.015Z,1.45
2023-05-10T02:12:03.500Z,1.80
2023-05-10T02:14:33.346Z,1.63
2023-05-10T02:17:01.248Z,1.83
2023-05-10T02:19:30.026Z,2.75
2023-05-10T02:21:58.228Z,1.73
2023-05-10T02:24:26.168Z,2.67
2023-05-10T02:26:55.469Z,1.77
2023-05-10T02:29:25.138Z,2.40
2023-05-10T02:31:56.944Z,2.42
2023-05-10T02:34:26.769Z,1.60
2023-05-10T02:36:55.130Z,3.08
2023-05-10T02:39:23.007Z,3.50
2023-05-10T02:42:01.656Z,2.47
2023-05-10T02:44:37.648Z,2.60
2023-05-10T02:47:05.054Z,2.75
2023-05-10T02:49:32.042Z,2.58
2023-05-10T02:52:05.787Z,2.53
2023-05-10T02:54:35.704Z,2.65
2023-05-10T02:57:06.872Z,2.25
2023-05-10T02:59:34.039Z,2.47
2023-05-10T03:02:11.364Z,2.45
2023-05-10T03:04:41.279Z,2.03
2023-05-10T03:07:09.539Z,2.70
2023-05-10T03:09:36.831Z,2.38
2023-05-10T03:12:03.658Z,2.55
2023-05-10T03:14:36.408Z,2.28
2023-05-10T03:17:12.766Z,1.98
2023-05-10T03:19:48.631Z,2.80
2023-05-10T03:22:41.924Z,3.00
2023-05-10T03:25:11.907Z,3.08
2023-05-10T03:27:43.955Z,3.40
2023-05-10T03:30:14.924Z,3.05
2023-05-10T03:32:41.903Z,3.13
2023-05-10T03:35:13.395Z,2.65
2023-05-10T03:37:40.530Z,2.58
2023-05-10T03:40:08.252Z,2.65
2023-05-10T03:42:35.138Z,2.83
2023-05-10T03:45:01.860Z,1.98
2023-05-10T03:47:28.565Z,1.83
2023-05-10T03:49:55.323Z,1.63
2023-05-10T03:52:22.021Z,1.50
2023-05-10T03:54:48.718Z,1.90
2023-05-10T03:57:15.892Z,1.35
2023-05-10T03:59:42.567Z,1.40
2023-05-10T04:02:09.304Z,1.00
2023-05-10T04:04:36.003Z,1.65
2023-05-10T04:07:02.679Z,2.60
2023-05-10T04:09:29.399Z,2.75
2023-05-10T04:11:56.160Z,4.35
2023-05-10T04:14:22.857Z,4.70
2023-05-10T04:16:49.567Z,3.20
2023-05-10T04:19:16.326Z,5.20
2023-05-10T04:21:43.047Z,7.28
2023-05-10T04:24:09.848Z,7.70
2023-05-10T04:26:44.677Z,7.38
2023-05-10T04:29:11.694Z,6.88
2023-05-10T04:31:39.162Z,5.07
2023-05-10T04:34:06.484Z,5.80
2023-05-10T04:36:37.916Z,4.13
2023-05-10T04:39:06.092Z,7.97
2023-05-10T04:41:32.885Z,8.30
2023-05-10T04:43:59.640Z,5.47
2023-05-10T04:46:26.593Z,6.90
2023-05-10T04:48:53.303Z,7.35
2023-05-10T04:51:20.070Z,6.22
2023-05-10T04:53:57.649Z,9.18
2023-05-10T04:56:31.709Z,7.65
2023-05-10T04:58:58.698Z,5.93
2023-05-10T05:01:25.475Z,7.15
2023-05-10T05:03:53.989Z,6.45
2023-05-10T05:06:22.145Z,5.22
2023-05-10T05:08:50.439Z,8.75
2023-05-10T05:11:18.736Z,7.18
2023-05-10T05:13:45.912Z,6.22
2023-05-10T05:16:12.715Z,6.07
2023-05-10T05:18:39.688Z,7.60
2023-05-10T05:21:19.319Z,5.43
2023-05-10T05:23:46.474Z,9.40
2023-05-10T05:26:13.242Z,5.43
2023-05-10T05:28:40.055Z,7.05
2023-05-10T05:31:08.751Z,4.47
2023-05-10T05:33:35.870Z,3.65
2023-05-10T05:36:04.073Z,5.10
2023-05-10T05:38:30.793Z,4.90
2023-05-10T05:40:57.571Z,4.43
2023-05-10T05:43:24.342Z,5.80
2023-05-10T05:45:53.006Z,5.95
2023-05-10T05:48:19.838Z,5.18
2023-05-10T05:50:47.003Z,6.93
2023-05-10T05:53:13.695Z,5.63
2023-05-10T05:55:40.414Z,2.90
2023-05-10T05:58:07.152Z,4.72
2023-05-10T06:00:33.867Z,6.97
2023-05-10T06:03:00.810Z,2.88
2023-05-10T06:05:27.755Z,5.68
2023-05-10T06:07:54.440Z,5.47
2023-05-10T06:10:21.092Z,6.07
2023-05-10T06:12:48.250Z,3.45
2023-05-10T06:15:15.131Z,4.10
2023-05-10T06:17:42.217Z,2.83
2023-05-10T06:20:09.586Z,2.83
2023-05-10T06:22:36.319Z,3.85
2023-05-10T06:25:03.643Z,1.83
2023-05-10T06:27:30.320Z,3.80
2023-05-10T06:30:09.215Z,3.83
2023-05-10T06:32:39.491Z,2.80
2023-05-10T06:35:06.828Z,2.33
2023-05-10T06:37:33.498Z,2.15
2023-05-10T06:40:00.274Z,2.35
2023-05-10T06:42:28.125Z,2.80
2023-05-10T06:44:54.867Z,2.40
2023-05-10T06:47:21.500Z,4.03
2023-05-10T06:49:48.226Z,3.50
2023-05-10T06:52:14.971Z,3.13
2023-05-10T06:54:41.779Z,4.28
2023-05-10T06:57:15.979Z,3.92
2023-05-10T06:59:46.511Z,4.28
2023-05-10T07:02:13.509Z,3.03
2023-05-10T07:04:40.643Z,3.67
2023-05-10T07:07:07.438Z,3.58
2023-05-10T07:09:34.529Z,4.00
2023-05-10T07:12:02.788Z,3.25
2023-05-10T07:14:29.474Z,4.10
2023-05-10T07:16:56.508Z,3.05
2023-05-10T07:19:23.505Z,3.60
2023-05-10T07:21:50.266Z,3.25
2023-05-10T07:24:17.013Z,4.80
2023-05-10T07:26:43.680Z,4.35
2023-05-10T07:29:10.985Z,4.25
2023-05-10T07:31:37.707Z,3.85
2023-05-10T07:34:04.480Z,2.55
2023-05-10T07:36:31.892Z,3.13
2023-05-10T07:38:58.737Z,3.70
2023-05-10T07:41:25.412Z,3.38
2023-05-10T07:43:52.315Z,3.47
2023-05-10T07:46:20.569Z,4.15
2023-05-10T07:48:47.455Z,3.58
2023-05-10T07:51:14.635Z,3.95
2023-05-10T07:53:41.542Z,3.25
2023-05-10T07:56:21.860Z,3.72
2023-05-10T07:58:48.802Z,4.38
2023-05-10T08:01:15.602Z,3.58
2023-05-10T08:03:42.402Z,4.95
2023-05-10T08:06:09.248Z,4.03
2023-05-10T08:08:35.992Z,3.53
2023-05-10T08:11:03.025Z,4.45
2023-05-10T08:13:29.757Z,2.80
2023-05-10T08:15:56.713Z,3.35
2023-05-10T08:18:23.625Z,4.70
2023-05-10T08:20:50.579Z,2.90
2023-05-10T08:23:17.286Z,4.35
2023-05-10T08:25:43.981Z,5.82
2023-05-10T08:28:11.959Z,5.32
2023-05-10T08:30:38.794Z,4.03
2023-05-10T08:33:05.604Z,4.28
2023-05-10T08:35:32.694Z,4.80
2023-05-10T08:37:59.461Z,3.92
2023-05-10T08:40:27.604Z,3.30
2023-05-10T08:43:07.601Z,3.17
2023-05-10T08:45:38.588Z,2.83
2023-05-10T08:48:07.596Z,3.38
2023-05-10T08:50:37.637Z,3.40
2023-05-10T08:53:12.407Z,2.42
2023-05-10T08:55:39.999Z,3.78
2023-05-10T08:58:07.684Z,2.45
2023-05-10T09:00:35.345Z,1.20
2023-05-10T09:03:03.891Z,2.70
2023-05-10T09:05:31.023Z,1.45
2023-05-10T09:07:58.093Z,1.92
2023-05-10T09:10:28.248Z,2.45
2023-05-10T09:15:25.602Z,1.98
2023-05-10T09:17:52.556Z,2.22
2023-05-10T09:20:20.227Z,2.83
2023-05-10T09:22:47.022Z,2.10
2023-05-10T09:25:16.243Z,1.45
2023-05-10T09:27:48.392Z,2.70
2023-05-10T09:30:24.768Z,1.50
2023-05-10T09:35:22.670Z,2.90
2023-05-10T09:37:51.757Z,2.38
2023-05-10T09:40:19.566Z,3.53
2023-05-10T09:43:00.867Z,3.75
2023-05-10T09:45:31.902Z,1.63
2023-05-10T09:48:00.022Z,3.63
2023-05-10T09:50:27.804Z,3.03
2023-05-10T09:53:03.980Z,2.05
2023-05-10T09:55:40.086Z,3.90
2023-05-10T09:58:11.278Z,3.05
2023-05-10T10:00:42.691Z,2.90
2023-05-10T10:03:16.589Z,1.92
2023-05-10T10:05:44.611Z,2.75
2023-05-10T10:08:13.086Z,2.78
2023-05-10T10:10:42.654Z,3.40
2023-05-10T10:13:09.597Z,3.15
2023-05-10T10:15:36.672Z,1.85
2023-05-10T10:18:05.278Z,2.88
2023-05-10T10:20:32.737Z,2.35
2023-05-10T10:22:59.521Z,2.35
2023-05-10T10:25:27.303Z,1.80
2023-05-10T10:27:54.202Z,2.22
2023-05-10T10:30:31.486Z,2.00
2023-05-10T10:33:10.384Z,2.55
2023-05-10T10:35:55.068Z,2.00
2023-05-10T10:38:22.982Z,1.52
2023-05-10T10:41:04.047Z,2.25
2023-05-10T10:43:34.204Z,1.75
2023-05-10T10:51:17.840Z,2.00
2023-05-10T10:53:52.735Z,2.20
2023-05-10T10:56:25.372Z,1.67
2023-05-10T10:58:54.369Z,1.73
2023-05-10T11:01:21.983Z,1.60
2023-05-10T11:04:01.720Z,2.72
2023-05-10T11:06:41.533Z,1.90
2023-05-10T11:09:13.216Z,1.52
2023-05-10T11:11:56.619Z,2.40
2023-05-10T11:14:24.017Z,1.45
2023-05-10T11:16:51.591Z,1.75
2023-05-10T11:19:27.087Z,1.80
2023-05-10T11:22:06.584Z,2.72
2023-05-10T11:24:34.962Z,1.38
2023-05-10T11:27:02.393Z,1.65
2023-05-10T11:29:29.708Z,1.48
2023-05-10T11:32:00.753Z,2.15
2023-05-10T11:34:39.075Z,0.93
2023-05-10T11:37:15.095Z,2.42
2023-05-10T11:39:48.694Z,2.20
2023-05-10T11:42:15.730Z,2.08
2023-05-10T11:44:44.364Z,1.80
2023-05-10T11:47:13.342Z,2.08
2023-05-10T11:49:40.374Z,2.03
2023-05-10T11:52:22.459Z,2.10
2023-05-10T11:54:53.523Z,1.90
2023-05-10T11:57:21.779Z,1.98
2023-05-10T11:59:48.566Z,1.60
2023-05-10T12:02:16.030Z,1.92
2023-05-10T12:04:43.153Z,1.15
2023-05-10T12:07:10.512Z,1.58
2023-05-10T12:09:43.729Z,1.95
2023-05-10T12:12:11.457Z,1.90
2023-05-10T12:14:38.221Z,2.13
2023-05-10T12:17:04.920Z,1.73
2023-05-10T12:19:40.694Z,1.67
2023-05-10T12:22:07.467Z,1.98
2023-05-10T12:24:39.217Z,1.60
2023-05-10T12:27:09.231Z,2.03
2023-05-10T12:32:03.494Z,1.60
2023-05-10T12:34:35.930Z,2.47
2023-05-10T12:37:08.218Z,1.90
2023-05-10T12:39:45.084Z,2.10
2023-05-10T12:42:14.193Z,1.40
2023-05-10T12:44:41.023Z,1.20
2023-05-10T12:47:08.380Z,1.40
2023-05-10T12:49:35.200Z,1.40
2023-05-10T12:52:04.505Z,1.83
2023-05-10T12:54:31.527Z,1.50
2023-05-10T12:56:58.284Z,1.88
2023-05-10T12:59:24.912Z,1.85
2023-05-10T13:01:51.654Z,1.83
2023-05-10T13:04:18.317Z,1.42
2023-05-10T13:06:45.391Z,2.35
2023-05-10T13:09:12.137Z,1.50
2023-05-10T13:11:38.812Z,1.63
2023-05-10T13:14:07.932Z,1.83
2023-05-10T13:16:34.849Z,2.00
2023-05-10T13:19:01.619Z,1.98
2023-05-10T13:21:30.470Z,1.70
2023-05-10T13:23:57.094Z,1.80
2023-05-10T13:26:23.721Z,1.90
2023-05-10T13:28:52.434Z,2.17
2023-05-10T13:31:19.187Z,2.00
2023-05-10T13:33:46.088Z,2.00
2023-05-10T13:36:12.915Z,1.98
2023-05-10T13:38:39.855Z,2.20
2023-05-10T13:41:06.772Z,1.70
2023-05-10T13:43:33.437Z,1.77
2023-05-10T13:46:00.175Z,1.83
2023-05-10T13:48:28.193Z,1.60
2023-05-10T13:50:55.265Z,1.40
2023-05-10T13:53:22.250Z,1.63
2023-05-10T13:55:51.408Z,1.80
2023-05-10T13:58:18.108Z,1.70
2023-05-10T14:00:44.872Z,1.45
2023-05-10T14:03:12.062Z,1.75
2023-05-10T14:05:50.535Z,1.65
2023-05-10T14:08:18.743Z,1.40
2023-05-10T14:10:46.180Z,1.70
2023-05-10T14:13:13.780Z,1.65
2023-05-10T14:15:41.147Z,1.67
2023-05-10T14:18:08.025Z,1.60
2023-05-10T14:20:35.185Z,1.70
2023-05-10T14:23:02.751Z,1.58
2023-05-10T14:25:29.639Z,1.67
2023-05-10T14:27:56.897Z,1.60
2023-05-10T14:30:23.901Z,1.70
2023-05-10T14:32:59.062Z,1.70
2023-05-10T14:35:26.082Z,1.80
2023-05-10T14:37:53.014Z,1.40
2023-05-10T14:40:20.397Z,1.30
2023-05-10T14:42:47.241Z,2.00
2023-05-10T14:45:14.147Z,1.67
2023-05-10T14:47:41.452Z,1.52
2023-05-10T14:50:09.079Z,1.50
2023-05-10T14:52:35.906Z,1.60
2023-05-10T14:55:03.008Z,1.30
2023-05-10T14:57:30.695Z,1.25
2023-05-10T14:59:57.964Z,1.33
2023-05-10T15:02:27.255Z,1.40
2023-05-10T15:04:54.434Z,1.58
2023-05-10T15:07:21.495Z,1.30
2023-05-10T15:09:48.150Z,1.38
2023-05-10T15:12:14.911Z,1.60
2023-05-10T15:14:41.637Z,1.60
2023-05-10T15:17:08.735Z,1.63
2023-05-10T15:19:35.702Z,1.48
2023-05-10T15:22:03.184Z,1.60
2023-05-10T15:24:30.053Z,1.50
2023-05-10T15:26:56.657Z,1.40
2023-05-10T15:29:23.458Z,1.55
2023-05-10T15:31:51.365Z,2.13
2023-05-10T15:34:18.964Z,1.70
2023-05-10T15:36:46.305Z,1.50
2023-05-10T15:39:13.186Z,1.10
2023-05-10T15:41:39.910Z,1.48
2023-05-10T15:44:06.624Z,1.38
2023-05-10T15:46:33.321Z,1.80
2023-05-10T15:49:00.266Z,2.08
2023-05-10T15:51:27.075Z,1.30
2023-05-10T15:54:05.809Z,1.45
2023-05-10T15:59:01.980Z,1.23
2023-05-10T16:01:29.108Z,1.08
2023-05-10T16:03:55.957Z,0.93
2023-05-10T16:06:22.773Z,1.00
2023-05-10T16:08:51.976Z,1.20
2023-05-10T16:11:21.198Z,1.00
2023-05-10T16:13:48.004Z,1.33
2023-05-10T16:16:14.784Z,1.30
2023-05-10T16:18:44.197Z,1.17
2023-05-10T16:21:12.445Z,1.20
2023-05-10T16:23:43.791Z,1.02
2023-05-10T16:26:12.273Z,0.85
2023-05-10T16:28:45.883Z,1.10
2023-05-10T16:31:17.328Z,0.88
2023-05-10T16:33:47.996Z,1.00
2023-05-10T16:36:17.736Z,1.20
2023-05-10T16:38:45.468Z,1.13
2023-05-10T16:41:14.992Z,1.05
2023-05-10T16:43:44.859Z,1.00
2023-05-10T16:46:25.497Z,1.40
2023-05-10T16:49:04.713Z,1.23
2023-05-10T16:51:33.817Z,1.20
2023-05-10T16:54:02.143Z,1.00
2023-05-10T16:56:30.155Z,0.80
2023-05-10T16:58:59.886Z,1.30
2023-05-10T17:01:37.077Z,1.00
2023-05-10T17:04:05.227Z,0.90
2023-05-10T17:06:37.516Z,1.02
2023-05-10T17:09:05.988Z,1.63
2023-05-10T17:11:38.402Z,0.95
2023-05-10T17:14:14.742Z,1.02
2023-05-10T17:16:43.290Z,0.88
2023-05-10T17:19:11.159Z,0.70
2023-05-10T17:21:45.589Z,1.20
2023-05-10T17:24:20.475Z,0.95
2023-05-10T17:26:47.468Z,1.33
2023-05-10T17:29:14.848Z,1.13
2023-05-10T17:31:44.210Z,0.82
2023-05-10T17:34:11.241Z,1.05
2023-05-10T17:36:38.156Z,1.17
2023-05-10T17:39:07.369Z,0.70
2023-05-10T17:41:37.834Z,0.70
2023-05-10T17:44:07.708Z,1.25
2023-05-10T17:49:02.450Z,1.00
2023-05-10T17:51:39.293Z,0.90
2023-05-10T17:54:16.508Z,1.20
2023-05-10T17:56:47.349Z,0.82
2023-05-10T17:59:14.512Z,0.88
2023-05-10T18:01:44.223Z,1.10
2023-05-10T18:04:13.795Z,1.15
2023-05-10T18:06:42.259Z,1.02
2023-05-10T18:09:13.396Z,0.70
2023-05-10T18:11:40.721Z,1.20
2023-05-10T18:14:28.497Z,0.93
2023-05-10T18:17:13.595Z,1.10
2023-05-10T18:19:44.551Z,0.95
2023-05-10T18:22:18.349Z,1.10
2023-05-10T18:24:57.869Z,1.00
2023-05-10T18:27:35.761Z,0.85
2023-05-10T18:30:10.927Z,0.90
2023-05-10T18:32:38.693Z,1.10
2023-05-10T18:35:07.737Z,0.80
2023-05-10T18:37:36.030Z,0.85
2023-05-10T18:40:06.868Z,0.40
2023-05-10T18:42:36.876Z,1.15
2023-05-10T18:45:04.230Z,0.98
2023-05-10T18:47:31.195Z,1.40
2023-05-10T18:49:58.912Z,0.68
2023-05-10T18:52:28.412Z,1.20
2023-05-10T18:55:02.078Z,1.15
2023-05-10T18:57:31.638Z,1.10
2023-05-10T18:59:59.564Z,1.00
2023-05-10T19:02:32.434Z,1.15
2023-05-10T19:05:07.148Z,0.98
2023-05-10T19:07:38.220Z,0.80
2023-05-10T19:10:08.494Z,1.05
2023-05-10T19:12:45.243Z,0.68
2023-05-10T19:15:20.169Z,0.98
2023-05-10T19:17:51.008Z,0.82
2023-05-10T19:20:18.946Z,0.85
2023-05-10T19:23:08.467Z,0.55
2023-05-10T19:25:48.503Z,0.70
2023-05-10T19:28:16.725Z,0.63
2023-05-10T19:30:47.336Z,0.88
2023-05-10T19:35:49.939Z,0.80
2023-05-10T19:38:23.990Z,0.68
2023-05-10T19:40:57.869Z,0.57
2023-05-10T19:43:26.428Z,0.70
2023-05-10T19:45:59.370Z,0.82
2023-05-10T19:48:26.986Z,0.75
2023-05-10T19:50:59.449Z,1.02
2023-05-10T19:53:26.509Z,0.70
2023-05-10T19:55:56.670Z,1.67
2023-05-10T19:58:23.734Z,0.80
2023-05-10T20:00:50.647Z,1.02
2023-05-10T20:03:17.658Z,0.68
2023-05-10T20:05:44.936Z,0.75
2023-05-10T20:08:11.940Z,0.52
2023-05-10T20:10:38.974Z,0.85
2023-05-10T20:13:05.881Z,0.63
2023-05-10T20:15:34.079Z,1.00
2023-05-10T20:18:01.713Z,0.73
2023-05-10T20:20:30.401Z,0.93
2023-05-10T20:23:00.037Z,0.85
2023-05-10T20:25:26.982Z,1.20
2023-05-10T20:27:53.883Z,0.80
2023-05-10T20:30:20.800Z,0.75
2023-05-10T20:32:47.735Z,0.93
2023-05-10T20:35:14.622Z,0.70
2023-05-10T20:37:41.278Z,1.00
2023-05-10T20:40:08.604Z,0.52
2023-05-10T20:42:35.554Z,0.70
2023-05-10T20:45:02.353Z,0.73
2023-05-10T20:47:29.194Z,0.80
2023-05-10T20:49:55.882Z,0.82
2023-05-10T20:52:24.457Z,1.00
2023-05-10T20:54:51.403Z,0.95
2023-05-10T20:57:18.224Z,1.00
2023-05-10T20:59:45.003Z,0.90
2023-05-10T21:02:11.762Z,1.10
2023-05-10T21:04:38.613Z,1.20
2023-05-10T21:07:05.381Z,0.75
2023-05-10T21:09:32.070Z,1.10
2023-05-10T21:11:58.772Z,0.80
2023-05-10T21:14:25.588Z,0.98
2023-05-10T21:16:55.499Z,1.30
2023-05-10T21:19:22.175Z,0.95
2023-05-10T21:21:48.982Z,0.75
2023-05-10T21:24:16.649Z,0.82
2023-05-10T21:26:46.282Z,0.93
2023-05-10T21:29:12.920Z,1.13
2023-05-10T21:31:42.188Z,0.90
2023-05-10T21:34:09.218Z,0.73
2023-05-10T21:36:36.390Z,0.95
2023-05-10T21:39:03.552Z,0.98
2023-05-10T21:41:30.650Z,1.20
2023-05-10T21:43:57.577Z,0.90
2023-05-10T21:46:24.590Z,1.23
2023-05-10T21:48:59.717Z,1.50
2023-05-10T21:51:26.911Z,0.77
2023-05-10T21:53:53.953Z,0.80
2023-05-10T21:56:21.060Z,0.65
2023-05-10T21:58:56.213Z,0.70
2023-05-10T22:01:23.201Z,0.75
2023-05-10T22:03:50.380Z,1.00
2023-05-10T22:06:17.744Z,0.80
2023-05-10T22:08:44.663Z,0.73
2023-05-10T22:11:11.489Z,1.02
2023-05-10T22:13:38.886Z,1.15
2023-05-10T22:16:07.345Z,1.10
2023-05-10T22:18:44.243Z,1.50
2023-05-10T22:21:11.283Z,0.80
2023-05-10T22:23:46.348Z,2.53
2023-05-10T22:26:16.521Z,1.08
2023-05-10T22:28:52.065Z,0.93
2023-05-10T22:31:18.996Z,0.80
2023-05-10T22:33:46.376Z,0.80
2023-05-10T22:36:15.369Z,0.77
2023-05-10T22:38:42.682Z,1.00
2023-05-10T22:41:09.616Z,0.65
2023-05-10T22:43:36.779Z,0.60
2023-05-10T22:46:09.022Z,0.70
2023-05-10T22:48:44.185Z,0.70
2023-05-10T22:51:11.377Z,0.70
2023-05-10T22:53:50.571Z,0.80
2023-05-10T22:56:23.083Z,0.73
2023-05-10T22:59:01.149Z,0.90
2023-05-10T23:01:29.152Z,1.27
2023-05-10T23:03:56.481Z,0.77
2023-05-10T23:06:23.611Z,0.90
2023-05-10T23:08:50.583Z,0.95
2023-05-10T23:11:17.630Z,1.15
2023-05-10T23:13:44.684Z,1.05
2023-05-10T23:16:12.183Z,1.10
2023-05-10T23:18:39.748Z,1.25
2023-05-10T23:21:06.722Z,1.00
2023-05-10T23:23:34.172Z,0.95
2023-05-10T23:26:05.245Z,0.60
2023-05-10T23:28:32.362Z,0.90
2023-05-10T23:30:59.429Z,1.02
2023-05-10T23:33:29.036Z,1.17
2023-05-10T23:35:55.828Z,0.88
2023-05-10T23:38:22.581Z,1.05
2023-05-10T23:40:50.280Z,0.93
2023-05-10T23:43:19.715Z,0.85
2023-05-10T23:45:56.985Z,0.82
2023-05-10T23:48:24.172Z,0.82
2023-05-10T23:50:50.978Z,0.55
2023-05-10T23:53:17.815Z,1.17
2023-05-10T23:55:45.477Z,0.52
2023-05-10T23:58:12.632Z,0.90
